Time;durP1;ratioP1;P1;durP2;ratioP2;P2;SDS_P1;SDS_P2;PMS_P1;PMS_P2;Temp;Humidity;BMP_temperature;BMP_pressure;BME280_temperature;BME280_humidity;BME280_pressure;Samples;Min_cycle;Max_cycle;Signal;HPM_P1;HPM_P2
2021/01/22 00:00:18;;;;;;;3.97;3.57;;;6.80;99.90;;;;;;5020698;28;20165;-90
2021/01/22 00:02:46;;;;;;;3.23;3.00;;;6.90;99.90;;;;;;5021000;28;20200;-88
2021/01/22 00:05:12;;;;;;;2.80;2.60;;;6.90;99.90;;;;;;5037374;28;20212;-89
2021/01/22 00:07:37;;;;;;;3.27;2.70;;;6.90;99.90;;;;;;5020829;28;20170;-88
2021/01/22 00:10:03;;;;;;;3.70;2.80;;;6.80;99.90;;;;;;5020832;28;20196;-89
2021/01/22 00:12:29;;;;;;;3.33;3.13;;;6.70;99.90;;;;;;5001156;28;20624;-89
2021/01/22 00:14:55;;;;;;;3.27;3.07;;;6.70;99.90;;;;;;5000833;28;20298;-90
2021/01/22 00:17:20;;;;;;;6.30;3.70;;;6.70;99.90;;;;;;4999886;28;20193;-91
2021/01/22 00:19:46;;;;;;;3.40;3.10;;;6.70;99.90;;;;;;4998985;28;20178;-91
2021/01/22 00:22:12;;;;;;;5.27;4.07;;;6.90;99.90;;;;;;4996661;28;20197;-91
2021/01/22 00:24:37;;;;;;;4.40;3.83;;;6.90;99.90;;;;;;5000678;28;20182;-92
2021/01/22 00:27:03;;;;;;;3.83;3.43;;;6.90;99.90;;;;;;4978461;28;20185;-92
2021/01/22 00:29:29;;;;;;;3.40;3.10;;;6.90;99.90;;;;;;4996110;28;20220;-92
2021/01/22 00:31:57;;;;;;;3.70;3.40;;;6.90;99.90;;;;;;4999985;28;20189;-91
2021/01/22 00:34:23;;;;;;;2.77;2.57;;;6.90;99.90;;;;;;4980129;28;20187;-91
2021/01/22 00:36:49;;;;;;;2.77;2.57;;;6.80;99.90;;;;;;4982282;28;20179;-92
2021/01/22 00:39:15;;;;;;;2.50;2.30;;;6.80;99.90;;;;;;4995955;28;20182;-92
2021/01/22 00:41:41;;;;;;;2.70;2.27;;;6.80;99.90;;;;;;4993744;28;20186;-93
2021/01/22 00:44:07;;;;;;;2.57;1.87;;;6.80;99.90;;;;;;4984857;28;20178;-93
2021/01/22 00:46:33;;;;;;;1.93;1.83;;;6.80;99.90;;;;;;4994011;28;20254;-93
2021/01/22 00:48:58;;;;;;;2.33;1.73;;;6.80;99.90;;;;;;4977386;28;20182;-93
2021/01/22 00:51:24;;;;;;;2.70;1.70;;;6.90;99.90;;;;;;4986891;28;20185;-92
2021/01/22 00:53:50;;;;;;;1.77;1.50;;;6.90;99.90;;;;;;4995282;28;20214;-92
2021/01/22 00:56:18;;;;;;;2.40;2.20;;;6.90;99.90;;;;;;5009800;28;20178;-92
2021/01/22 00:58:43;;;;;;;2.43;2.20;;;6.90;99.90;;;;;;4993642;28;20218;-93
2021/01/22 01:01:09;;;;;;;5.07;1.93;;;6.90;99.90;;;;;;4981356;28;20186;-93
2021/01/22 01:03:37;;;;;;;4.20;2.37;;;6.90;99.90;;;;;;4991640;28;20277;-92
2021/01/22 01:06:03;;;;;;;2.73;2.47;;;6.90;99.90;;;;;;4976398;28;20236;-92
2021/01/22 01:08:29;;;;;;;2.90;2.70;;;6.80;99.90;;;;;;4976141;28;20190;-92
2021/01/22 01:10:55;;;;;;;3.93;2.83;;;6.80;99.90;;;;;;4976389;28;20229;-92
2021/01/22 01:13:20;;;;;;;6.67;2.80;;;6.70;99.90;;;;;;4976177;28;20202;-92
2021/01/22 01:15:48;;;;;;;6.70;2.73;;;6.70;99.90;;;;;;4992244;28;20190;-93
2021/01/22 01:18:16;;;;;;;2.90;2.70;;;6.70;99.90;;;;;;4976230;28;20182;-92
2021/01/22 01:20:42;;;;;;;2.70;2.50;;;6.80;99.90;;;;;;4993062;28;20177;-93
2021/01/22 01:23:14;;;;;;;2.30;2.10;;;6.80;99.90;;;;;;4995548;28;20200;-92
2021/01/22 01:25:42;;;;;;;1.97;1.87;;;6.80;99.90;;;;;;4995553;28;20185;-92
2021/01/22 01:28:08;;;;;;;3.27;1.60;;;6.80;99.90;;;;;;5011586;28;20182;-93
2021/01/22 01:30:35;;;;;;;2.90;1.37;;;6.80;99.90;;;;;;4995468;28;20185;-92
2021/01/22 01:33:01;;;;;;;3.03;1.70;;;6.70;99.90;;;;;;4992107;28;20206;-92
2021/01/22 01:35:28;;;;;;;1.20;1.00;;;6.70;99.90;;;;;;4988048;28;20255;-91
2021/01/22 01:37:53;;;;;;;1.70;1.10;;;6.70;99.90;;;;;;4995009;28;20627;-92
2021/01/22 01:40:19;;;;;;;1.00;1.00;;;6.60;99.90;;;;;;4995087;28;20205;-93
2021/01/22 01:42:45;;;;;;;0.87;0.83;;;6.50;99.90;;;;;;4995224;28;20272;-93
2021/01/22 01:45:12;;;;;;;2.87;0.80;;;6.50;99.90;;;;;;4995164;28;20525;-92
2021/01/22 01:47:37;;;;;;;1.67;1.10;;;6.40;99.90;;;;;;4995862;28;20182;-92
2021/01/22 01:50:04;;;;;;;1.13;0.80;;;6.50;99.90;;;;;;4996026;28;20213;-92
2021/01/22 01:52:30;;;;;;;1.43;1.00;;;6.50;99.90;;;;;;4994363;28;21083;-91
2021/01/22 01:55:00;;;;;;;1.37;0.90;;;6.50;99.90;;;;;;4996080;28;20178;-91
2021/01/22 01:57:26;;;;;;;2.10;0.80;;;6.50;99.90;;;;;;4995913;28;20178;-94
2021/01/22 01:59:52;;;;;;;1.07;0.90;;;6.40;99.90;;;;;;4995160;28;20268;-93
2021/01/22 02:02:19;;;;;;;3.47;1.00;;;6.40;99.90;;;;;;4994838;28;20284;-93
2021/01/22 02:04:45;;;;;;;2.40;1.00;;;6.30;99.90;;;;;;5015683;28;20174;-93
2021/01/22 02:07:10;;;;;;;6.23;1.40;;;6.20;99.90;;;;;;5000056;28;20196;-92
2021/01/22 02:09:39;;;;;;;1.37;1.00;;;6.20;99.90;;;;;;4994965;28;20189;-93
2021/01/22 02:12:07;;;;;;;5.40;1.37;;;6.20;99.90;;;;;;4994708;28;20181;-93
2021/01/22 02:14:35;;;;;;;1.77;1.60;;;6.20;99.90;;;;;;4994655;28;20685;-93
2021/01/22 02:17:04;;;;;;;1.43;1.33;;;6.20;99.90;;;;;;4994529;28;20178;-93
2021/01/22 02:19:55;;;;;;;1.90;1.60;;;6.20;99.90;;;;;;4994645;28;20189;-93
2021/01/22 02:22:23;;;;;;;4.80;1.63;;;6.20;99.90;;;;;;4993945;28;20692;-93
2021/01/22 02:24:51;;;;;;;2.07;1.57;;;6.20;99.90;;;;;;4994735;28;20174;-92
2021/01/22 02:27:18;;;;;;;1.60;1.50;;;6.10;99.90;;;;;;4994263;28;20661;-93
2021/01/22 02:29:45;;;;;;;1.67;1.40;;;6.10;99.90;;;;;;5010959;28;20305;-93
2021/01/22 02:32:12;;;;;;;2.27;1.40;;;6.10;99.90;;;;;;4994301;28;20209;-93
2021/01/22 02:34:40;;;;;;;1.87;1.77;;;6.10;99.90;;;;;;4994459;28;20177;-93
2021/01/22 02:37:10;;;;;;;3.40;1.47;;;6.10;99.90;;;;;;4994601;28;20221;-93
2021/01/22 02:39:39;;;;;;;2.27;1.60;;;6.00;99.90;;;;;;4994011;28;20212;-93
2021/01/22 02:42:07;;;;;;;2.03;1.63;;;5.90;99.90;;;;;;4993879;28;20638;-92
2021/01/22 02:44:35;;;;;;;4.97;1.80;;;5.90;99.90;;;;;;4994204;28;20200;-94
2021/01/22 02:47:04;;;;;;;1.77;1.50;;;5.80;99.90;;;;;;4994143;28;20189;-92
2021/01/22 02:49:30;;;;;;;4.60;1.50;;;5.80;99.90;;;;;;4995524;28;20704;-93
2021/01/22 02:51:58;;;;;;;2.67;1.73;;;5.70;99.90;;;;;;5010438;28;20181;-92
2021/01/22 02:54:24;;;;;;;2.80;2.00;;;5.80;99.90;;;;;;4994283;28;20255;-92
2021/01/22 02:56:55;;;;;;;2.00;1.80;;;5.80;99.90;;;;;;4993669;28;20183;-93
2021/01/22 02:59:27;;;;;;;2.43;1.97;;;5.80;99.90;;;;;;4994103;28;20197;-92
2021/01/22 03:02:13;;;;;;;4.07;1.80;;;5.70;99.90;;;;;;4990597;28;20202;-93
2021/01/22 03:04:40;;;;;;;2.13;1.93;;;5.60;99.90;;;;;;4970892;28;20192;-93
2021/01/22 03:07:12;;;;;;;3.40;2.60;;;5.60;99.90;;;;;;4991355;28;20178;-93
2021/01/22 03:09:43;;;;;;;4.83;3.07;;;5.60;99.90;;;;;;5004832;28;20212;-92
2021/01/22 03:12:10;;;;;;;8.23;3.80;;;5.60;99.90;;;;;;5006652;28;20189;-93
2021/01/22 03:14:39;;;;;;;8.27;3.67;;;5.60;99.90;;;;;;4997958;28;20181;-92
2021/01/22 03:17:05;;;;;;;8.53;3.73;;;5.60;99.90;;;;;;5016364;28;20178;-92
2021/01/22 03:19:41;;;;;;;6.03;4.00;;;5.60;99.90;;;;;;4994350;28;20677;-93
2021/01/22 03:22:07;;;;;;;15.90;5.13;;;5.60;99.90;;;;;;4994049;28;20212;-93
2021/01/22 03:24:32;;;;;;;12.93;4.23;;;5.70;99.90;;;;;;5022672;28;20186;-94
2021/01/22 03:26:59;;;;;;;12.03;4.83;;;5.70;99.90;;;;;;5011875;28;20228;-92
2021/01/22 03:29:24;;;;;;;7.53;4.77;;;5.80;99.90;;;;;;5003594;28;20185;-94
2021/01/22 03:31:50;;;;;;;11.00;4.77;;;5.90;99.90;;;;;;4993745;28;20263;-93
2021/01/22 03:34:16;;;;;;;9.40;4.77;;;5.90;99.90;;;;;;5009775;28;20690;-93
2021/01/22 03:36:44;;;;;;;9.63;3.87;;;6.00;99.90;;;;;;4984241;28;20182;-94
2021/01/22 03:39:11;;;;;;;12.60;4.73;;;6.00;99.90;;;;;;4975534;28;20546;-93
2021/01/22 03:41:37;;;;;;;9.60;4.87;;;5.90;99.90;;;;;;4974228;28;20178;-93
2021/01/22 03:44:03;;;;;;;8.27;4.40;;;5.90;99.90;;;;;;4974390;28;20225;-93
2021/01/22 03:46:28;;;;;;;7.43;4.13;;;5.90;99.90;;;;;;4990395;28;20237;-93
2021/01/22 03:48:54;;;;;;;6.10;4.90;;;5.90;99.90;;;;;;4974120;28;20277;-94
2021/01/22 03:51:20;;;;;;;7.47;4.03;;;5.90;99.90;;;;;;4975363;28;20182;-93
2021/01/22 03:53:45;;;;;;;8.47;4.07;;;5.90;99.90;;;;;;4990868;28;20299;-93
2021/01/22 03:56:11;;;;;;;8.20;3.90;;;5.90;99.90;;;;;;4998033;28;20185;-93
2021/01/22 03:58:37;;;;;;;8.83;4.00;;;5.80;99.90;;;;;;4996865;28;20204;-93
2021/01/22 04:01:03;;;;;;;8.53;4.23;;;5.80;99.90;;;;;;4997289;28;20186;-93
2021/01/22 04:03:28;;;;;;;8.93;4.17;;;5.80;99.90;;;;;;4979220;28;20186;-93
2021/01/22 04:05:56;;;;;;;6.77;4.07;;;5.80;99.90;;;;;;4980074;28;20189;-93
2021/01/22 04:08:21;;;;;;;8.67;4.37;;;5.80;99.90;;;;;;4996942;28;20225;-93
2021/01/22 04:10:47;;;;;;;10.33;4.10;;;5.80;99.90;;;;;;5013289;28;20197;-94
2021/01/22 04:13:13;;;;;;;9.77;4.67;;;5.90;99.90;;;;;;4996303;28;20252;-93
2021/01/22 04:15:38;;;;;;;12.63;3.73;;;5.90;99.90;;;;;;4996469;28;20189;-93
2021/01/22 04:18:04;;;;;;;6.80;3.93;;;5.90;99.90;;;;;;4996577;28;20181;-93
2021/01/22 04:20:30;;;;;;;6.57;3.40;;;6.00;99.90;;;;;;4996575;28;20281;-92
2021/01/22 04:22:55;;;;;;;9.03;3.90;;;6.10;99.90;;;;;;4996447;28;20189;-93
2021/01/22 04:25:21;;;;;;;7.43;3.40;;;6.30;99.90;;;;;;4996627;28;20189;-93
2021/01/22 04:27:47;;;;;;;3.70;3.30;;;6.30;99.90;;;;;;5012111;28;20157;-92
2021/01/22 04:30:13;;;;;;;5.23;2.97;;;6.40;99.90;;;;;;5008186;28;20271;-93
2021/01/22 04:32:40;;;;;;;6.07;2.60;;;6.40;99.90;;;;;;4996368;28;20205;-93
2021/01/22 04:35:07;;;;;;;7.47;3.00;;;6.40;99.90;;;;;;4996032;28;20189;-93
2021/01/22 04:37:33;;;;;;;4.67;2.70;;;6.40;99.90;;;;;;4992933;28;20189;-92
2021/01/22 04:39:59;;;;;;;3.20;2.50;;;6.40;99.90;;;;;;4977079;28;20220;-93
2021/01/22 04:42:24;;;;;;;5.67;2.50;;;6.50;99.90;;;;;;4977042;28;20192;-93
2021/01/22 04:44:50;;;;;;;5.57;2.67;;;6.60;99.90;;;;;;4993072;28;20190;-93
2021/01/22 04:47:16;;;;;;;4.37;2.63;;;6.70;99.90;;;;;;4992996;28;20182;-93
2021/01/22 04:49:45;;;;;;;3.73;2.37;;;6.80;99.90;;;;;;4976731;28;20178;-94
2021/01/22 04:52:11;;;;;;;5.50;2.97;;;6.80;99.90;;;;;;4980969;28;20189;-93
2021/01/22 04:54:42;;;;;;;4.80;2.47;;;6.80;99.90;;;;;;4996183;28;20255;-94
2021/01/22 04:57:09;;;;;;;9.30;2.80;;;6.80;99.90;;;;;;4995989;28;20237;-93
2021/01/22 04:59:49;;;;;;;8.90;2.77;;;6.80;99.90;;;;;;4995985;28;20178;-93
2021/01/22 05:02:16;;;;;;;5.47;2.47;;;6.80;99.90;;;;;;4996164;28;20264;-94
2021/01/22 05:04:42;;;;;;;7.53;2.93;;;6.70;99.90;;;;;;4995546;28;20177;-93
2021/01/22 05:07:09;;;;;;;7.00;2.40;;;6.80;99.90;;;;;;4996914;28;20188;-93
2021/01/22 05:09:35;;;;;;;7.23;3.07;;;6.80;99.90;;;;;;4995527;28;20186;-92
2021/01/22 05:12:01;;;;;;;7.73;2.83;;;6.80;99.90;;;;;;5012111;28;20192;-94
2021/01/22 05:14:27;;;;;;;3.30;2.50;;;6.70;99.90;;;;;;4996831;28;20192;-93
2021/01/22 05:17:08;;;;;;;9.47;3.10;;;6.70;99.90;;;;;;4996726;28;20701;-93
2021/01/22 05:19:37;;;;;;;4.43;2.90;;;6.60;99.90;;;;;;4996053;28;20182;-93
2021/01/22 05:22:04;;;;;;;3.87;2.77;;;6.50;99.90;;;;;;4995615;28;20236;-93
2021/01/22 05:24:30;;;;;;;7.93;3.00;;;6.40;99.90;;;;;;4995694;28;20173;-92
2021/01/22 05:27:06;;;;;;;4.67;3.07;;;6.40;99.90;;;;;;4995416;28;20185;-93
2021/01/22 05:29:34;;;;;;;3.37;3.07;;;6.50;99.90;;;;;;4996360;28;20205;-93
2021/01/22 05:32:00;;;;;;;7.10;3.30;;;6.50;99.90;;;;;;4995477;28;20184;-93
2021/01/22 05:34:50;;;;;;;5.90;3.03;;;6.40;99.90;;;;;;4997779;28;20213;-92
2021/01/22 05:37:19;;;;;;;8.57;3.27;;;6.40;99.90;;;;;;5014686;28;20188;-93
2021/01/22 05:39:45;;;;;;;3.97;3.10;;;6.30;99.90;;;;;;5015964;28;20197;-92
2021/01/22 05:42:13;;;;;;;3.80;2.53;;;6.30;99.90;;;;;;5009113;28;20188;-93
2021/01/22 05:44:53;;;;;;;5.33;2.93;;;6.30;99.90;;;;;;4998201;28;20205;-93
2021/01/22 05:47:18;;;;;;;6.70;3.50;;;6.20;99.90;;;;;;4995007;28;20666;-92
2021/01/22 05:49:58;;;;;;;7.17;3.53;;;6.10;99.90;;;;;;4995133;28;20181;-93
2021/01/22 05:52:25;;;;;;;5.80;2.90;;;6.00;99.90;;;;;;4996096;28;20212;-94
2021/01/22 05:54:51;;;;;;;7.60;2.80;;;6.00;99.90;;;;;;5013646;28;20265;-93
2021/01/22 05:57:18;;;;;;;5.93;2.90;;;6.10;99.90;;;;;;5012178;28;20186;-93
2021/01/22 05:59:44;;;;;;;7.03;2.83;;;6.00;99.90;;;;;;4998952;28;20638;-93
2021/01/22 06:02:29;;;;;;;2.40;2.20;;;6.10;99.90;;;;;;4983570;28;20210;-93
2021/01/22 06:05:11;;;;;;;7.13;2.70;;;6.10;99.90;;;;;;4976660;28;20212;-93
2021/01/22 06:07:38;;;;;;;6.73;2.60;;;6.10;99.90;;;;;;4977073;28;20231;-93
2021/01/22 06:10:22;;;;;;;7.07;3.13;;;6.10;99.90;;;;;;4975468;28;20281;-93
2021/01/22 06:12:54;;;;;;;8.37;2.30;;;6.10;99.90;;;;;;4976046;28;20205;-93
2021/01/22 06:15:24;;;;;;;4.57;2.47;;;6.10;99.90;;;;;;4975414;28;20190;-93
2021/01/22 06:17:51;;;;;;;6.50;2.60;;;6.10;99.90;;;;;;4974423;28;20190;-93
2021/01/22 06:20:21;;;;;;;8.00;3.10;;;6.10;99.90;;;;;;4975238;28;20182;-93
2021/01/22 06:23:09;;;;;;;3.03;2.50;;;6.10;99.90;;;;;;4977097;28;20171;-92
2021/01/22 06:25:36;;;;;;;7.63;2.50;;;6.10;99.90;;;;;;4994434;28;20177;-93
2021/01/22 06:28:03;;;;;;;5.83;2.30;;;6.20;99.90;;;;;;4995561;28;20178;-93
2021/01/22 06:30:33;;;;;;;4.30;2.50;;;6.20;99.90;;;;;;4995500;28;20627;-93
2021/01/22 06:33:02;;;;;;;8.73;3.00;;;6.20;99.90;;;;;;4995641;28;20562;-92
2021/01/22 06:35:29;;;;;;;3.87;2.57;;;6.10;99.90;;;;;;4994642;28;20654;-92
2021/01/22 06:37:59;;;;;;;7.90;2.87;;;6.10;99.90;;;;;;4994042;28;20177;-92
2021/01/22 06:40:25;;;;;;;4.17;2.60;;;6.20;99.90;;;;;;4994730;28;20193;-92
2021/01/22 06:42:51;;;;;;;5.30;2.60;;;6.20;99.90;;;;;;4994231;28;20189;-92
2021/01/22 06:45:19;;;;;;;3.67;2.80;;;6.20;99.90;;;;;;4994078;28;20186;-92
2021/01/22 06:48:05;;;;;;;3.83;2.40;;;6.10;99.90;;;;;;4993967;28;20223;-92
2021/01/22 06:50:32;;;;;;;3.57;2.63;;;6.10;99.90;;;;;;4994164;28;20177;-92
2021/01/22 06:53:12;;;;;;;6.77;3.07;;;6.20;99.90;;;;;;4994584;28;20213;-92
2021/01/22 06:55:51;;;;;;;9.60;2.00;;;6.20;99.90;;;;;;5003922;28;20173;-91
2021/01/22 06:58:28;;;;;;;8.07;3.10;;;6.10;99.90;;;;;;5008709;28;20189;-92
2021/01/22 07:00:56;;;;;;;11.50;2.27;;;6.10;99.90;;;;;;4991146;28;20261;-93
2021/01/22 07:03:37;;;;;;;6.80;2.63;;;6.10;99.90;;;;;;4975037;28;20213;-93
2021/01/22 07:06:27;;;;;;;7.37;2.57;;;6.10;99.90;;;;;;4976694;28;20213;-93
2021/01/22 07:08:53;;;;;;;5.23;2.47;;;6.00;99.90;;;;;;4976483;28;20237;-92
2021/01/22 07:11:23;;;;;;;9.57;2.77;;;6.00;99.90;;;;;;4978335;28;20189;-93
2021/01/22 07:13:50;;;;;;;8.60;2.30;;;6.00;99.90;;;;;;4974920;28;20607;-92
2021/01/22 07:16:18;;;;;;;4.30;2.30;;;5.90;99.90;;;;;;4989890;28;20196;-92
2021/01/22 07:18:44;;;;;;;10.73;2.40;;;5.90;99.90;;;;;;4994305;28;20185;-92
2021/01/22 07:21:39;;;;;;;6.03;2.40;;;5.90;99.90;;;;;;4994000;28;20208;-92
2021/01/22 07:24:13;;;;;;;5.60;2.10;;;5.90;99.90;;;;;;4998549;28;20197;-92
2021/01/22 07:26:45;;;;;;;8.83;2.10;;;5.80;99.90;;;;;;5011664;28;20173;-93
2021/01/22 07:29:26;;;;;;;7.20;1.97;;;5.80;99.90;;;;;;5015466;28;20220;-93
2021/01/22 07:31:56;;;;;;;3.10;1.87;;;5.80;99.90;;;;;;5018527;28;20173;-93
2021/01/22 07:34:36;;;;;;;8.30;2.20;;;5.70;99.90;;;;;;5019819;28;20209;-90
2021/01/22 07:37:14;;;;;;;7.60;2.70;;;5.60;99.90;;;;;;5021231;28;20204;-90
2021/01/22 07:39:41;;;;;;;3.87;2.40;;;5.50;99.90;;;;;;5015324;28;20278;-91
2021/01/22 07:42:09;;;;;;;6.67;2.27;;;5.60;99.90;;;;;;5002016;28;20202;-90
2021/01/22 07:44:36;;;;;;;4.23;2.50;;;5.60;99.90;;;;;;5005746;28;20188;-90
2021/01/22 07:47:05;;;;;;;5.70;2.30;;;5.70;99.90;;;;;;5033417;28;20194;-92
2021/01/22 07:49:31;;;;;;;4.97;1.93;;;5.70;99.90;;;;;;4999901;28;20629;-93
2021/01/22 07:52:04;;;;;;;4.30;2.53;;;5.70;99.90;;;;;;4999877;28;20184;-92
2021/01/22 07:54:42;;;;;;;3.07;2.00;;;5.70;99.90;;;;;;4998780;28;20677;-93
2021/01/22 07:57:15;;;;;;;7.03;3.40;;;5.70;99.90;;;;;;4999013;28;20280;-92
2021/01/22 07:59:42;;;;;;;4.63;2.97;;;5.80;99.90;;;;;;4999362;28;20181;-92
2021/01/22 08:02:19;;;;;;;8.77;2.60;;;5.90;99.90;;;;;;5001070;28;20188;-92
2021/01/22 08:05:09;;;;;;;5.13;2.07;;;5.80;99.90;;;;;;5009871;28;20182;-92
2021/01/22 08:07:40;;;;;;;7.90;2.67;;;5.70;99.90;;;;;;5019068;28;20189;-89
2021/01/22 08:10:12;;;;;;;9.77;3.00;;;5.80;99.90;;;;;;5017226;28;20168;-92
2021/01/22 08:12:53;;;;;;;5.77;2.33;;;5.80;99.90;;;;;;5004321;28;20264;-92
2021/01/22 08:15:19;;;;;;;9.27;3.07;;;6.00;99.90;;;;;;4997984;28;20178;-92
2021/01/22 08:17:48;;;;;;;4.17;2.40;;;6.00;99.90;;;;;;4998485;28;20228;-92
2021/01/22 08:20:16;;;;;;;4.50;2.73;;;6.00;99.90;;;;;;4997437;28;20182;-92
2021/01/22 08:22:42;;;;;;;3.33;2.20;;;6.10;99.90;;;;;;5007402;28;20181;-92
2021/01/22 08:25:09;;;;;;;6.00;2.23;;;6.20;99.90;;;;;;5015345;28;20181;-92
2021/01/22 08:27:35;;;;;;;5.43;2.77;;;6.30;99.90;;;;;;5008261;28;20185;-92
2021/01/22 08:30:03;;;;;;;7.53;2.90;;;6.30;99.90;;;;;;4996818;28;20272;-92
2021/01/22 08:32:31;;;;;;;6.97;2.60;;;6.50;99.90;;;;;;4998054;28;20237;-94
2021/01/22 08:34:57;;;;;;;10.50;2.93;;;6.60;99.90;;;;;;4997712;28;20185;-92
2021/01/22 08:37:23;;;;;;;6.63;2.40;;;6.70;99.90;;;;;;4996642;28;20231;-92
2021/01/22 08:39:59;;;;;;;6.67;2.47;;;6.80;99.90;;;;;;4995476;28;20651;-93
2021/01/22 08:42:27;;;;;;;4.77;2.30;;;6.90;99.90;;;;;;4998379;28;20223;-91
2021/01/22 08:45:03;;;;;;;10.03;2.37;;;6.90;99.90;;;;;;5016791;28;20166;-91
2021/01/22 08:47:31;;;;;;;5.30;2.53;;;7.10;99.90;;;;;;4998275;28;20173;-89
2021/01/22 08:50:03;;;;;;;2.83;2.30;;;7.30;99.90;;;;;;4998110;28;20173;-91
2021/01/22 08:52:31;;;;;;;7.13;2.37;;;7.40;99.90;;;;;;4998548;28;20235;-91
2021/01/22 08:54:58;;;;;;;3.60;1.90;;;7.40;99.90;;;;;;4996982;28;20205;-91
2021/01/22 08:57:28;;;;;;;4.77;1.90;;;7.50;99.90;;;;;;4996526;28;20181;-90
2021/01/22 08:59:56;;;;;;;7.57;2.17;;;7.60;99.90;;;;;;4996876;28;20178;-91
2021/01/22 09:02:42;;;;;;;4.10;2.23;;;7.80;99.90;;;;;;4997514;28;20448;-90
2021/01/22 09:05:18;;;;;;;5.88;2.65;;;7.90;99.90;;;;;;4997660;28;20420;-90
2021/01/22 09:07:46;;;;;;;3.70;1.80;;;8.10;99.90;;;;;;5013429;28;20638;-91
2021/01/22 09:10:21;;;;;;;6.23;1.73;;;8.10;99.90;;;;;;4996976;28;20178;-91
2021/01/22 09:12:52;;;;;;;7.80;1.80;;;8.10;99.90;;;;;;4997982;28;20301;-89
2021/01/22 09:15:18;;;;;;;8.93;2.23;;;8.00;99.90;;;;;;4997324;28;20224;-91
2021/01/22 09:17:50;;;;;;;7.95;2.00;;;8.00;99.90;;;;;;4997588;28;20184;-91
2021/01/22 09:20:27;;;;;;;5.10;1.80;;;8.00;99.90;;;;;;4996292;28;20188;-91
2021/01/22 09:23:04;;;;;;;3.60;2.13;;;8.10;99.90;;;;;;4993475;28;20185;-92
2021/01/22 09:25:31;;;;;;;6.53;1.97;;;8.30;99.90;;;;;;4978704;28;20186;-90
2021/01/22 09:27:56;;;;;;;7.80;1.90;;;8.40;99.90;;;;;;4976897;28;20189;-91
2021/01/22 09:30:27;;;;;;;2.70;1.70;;;8.30;99.90;;;;;;4994615;28;20178;-92
2021/01/22 09:33:01;;;;;;;3.60;1.87;;;8.40;99.90;;;;;;4983211;28;20202;-91
2021/01/22 09:35:29;;;;;;;7.50;1.80;;;8.50;99.90;;;;;;4990215;28;20247;-91
2021/01/22 09:37:55;;;;;;;5.13;2.10;;;8.70;99.90;;;;;;4997140;28;20205;-90
2021/01/22 09:40:22;;;;;;;2.80;1.57;;;8.80;99.90;;;;;;4997988;28;20181;-92
2021/01/22 09:42:48;;;;;;;3.90;2.00;;;9.00;99.90;;;;;;4998530;28;20185;-92
2021/01/22 09:45:15;;;;;;;4.73;1.90;;;9.10;99.90;;;;;;4998023;28;20188;-91
2021/01/22 09:47:41;;;;;;;5.10;1.73;;;9.20;99.90;;;;;;5000019;28;20185;-90
2021/01/22 09:50:08;;;;;;;3.28;1.85;;;9.40;99.90;;;;;;5001474;28;20185;-91
2021/01/22 09:52:37;;;;;;;17.47;2.27;;;9.50;99.90;;;;;;4994248;28;20214;-91
2021/01/22 09:55:08;;;;;;;6.78;2.25;;;10.00;99.90;;;;;;4993992;28;20177;-91
2021/01/22 09:57:37;;;;;;;6.22;1.90;;;10.50;99.90;;;;;;5011878;28;20192;-91
2021/01/22 10:00:07;;;;;;;6.18;2.10;;;10.80;99.90;;;;;;4991105;28;20296;-90
2021/01/22 10:02:33;;;;;;;9.30;2.03;;;11.30;99.90;;;;;;4977466;28;20186;-92
2021/01/22 10:04:59;;;;;;;3.80;1.83;;;11.80;99.90;;;;;;4978326;28;20285;-91
2021/01/22 10:07:26;;;;;;;4.93;2.13;;;12.20;99.90;;;;;;5001724;28;20319;-92
2021/01/22 10:09:51;;;;;;;4.03;1.85;;;13.00;99.90;;;;;;4979191;28;20194;-92
2021/01/22 10:12:18;;;;;;;7.05;1.88;;;13.90;99.90;;;;;;4982287;28;20270;-92
2021/01/22 10:14:44;;;;;;;4.43;1.90;;;14.10;99.90;;;;;;4993337;28;20185;-91
2021/01/22 10:17:10;;;;;;;4.93;2.33;;;14.00;99.90;;;;;;4986905;28;20200;-92
2021/01/22 10:19:37;;;;;;;9.13;2.22;;;14.10;99.90;;;;;;4978917;28;20558;-91
2021/01/22 10:22:04;;;;;;;7.75;2.08;;;14.00;99.90;;;;;;4977472;28;20193;-92
2021/01/22 10:24:29;;;;;;;5.45;2.30;;;13.90;99.90;;;;;;5005821;28;20189;-92
2021/01/22 10:26:55;;;;;;;8.98;2.53;;;13.80;99.90;;;;;;5009294;28;20185;-93
2021/01/22 10:29:21;;;;;;;4.93;1.83;;;13.50;99.90;;;;;;4980120;28;20186;-91
2021/01/22 10:31:47;;;;;;;6.95;2.05;;;13.10;99.90;;;;;;4979452;28;20615;-91
2021/01/22 10:34:13;;;;;;;6.75;1.98;;;13.00;99.90;;;;;;5002811;28;20216;-91
2021/01/22 10:36:39;;;;;;;7.93;2.25;;;13.30;99.90;;;;;;5014283;28;20186;-87
2021/01/22 10:39:06;;;;;;;5.10;2.28;;;13.20;99.90;;;;;;5004125;28;20241;-89
2021/01/22 10:41:34;;;;;;;5.90;2.25;;;13.30;99.90;;;;;;4979145;28;20182;-90
2021/01/22 10:44:00;;;;;;;6.40;2.85;;;13.20;99.90;;;;;;4996045;28;20189;-90
2021/01/22 10:46:28;;;;;;;5.57;2.47;;;12.70;99.90;;;;;;5000081;28;20516;-88
2021/01/22 10:48:54;;;;;;;6.38;1.92;;;12.70;99.90;;;;;;4999496;28;20192;-89
2021/01/22 10:51:19;;;;;;;7.78;2.38;;;13.00;99.90;;;;;;5011846;28;20173;-88
2021/01/22 10:53:46;;;;;;;5.63;2.20;;;13.50;99.90;;;;;;5018072;28;20212;-88
2021/01/22 10:56:12;;;;;;;6.25;2.42;;;14.20;99.90;;;;;;5017518;28;20205;-90
2021/01/22 10:58:40;;;;;;;8.55;2.47;;;14.70;99.90;;;;;;4994688;28;20181;-89
2021/01/22 11:01:06;;;;;;;4.55;2.05;;;14.60;99.90;;;;;;4991880;28;20186;-90
2021/01/22 11:03:32;;;;;;;9.13;2.20;;;15.00;99.90;;;;;;5011156;28;20185;-90
2021/01/22 11:05:58;;;;;;;6.85;2.25;;;15.20;99.90;;;;;;4991921;28;20186;-89
2021/01/22 11:08:25;;;;;;;12.38;2.15;;;16.50;99.90;;;;;;4994325;28;20189;-89
2021/01/22 11:10:53;;;;;;;9.23;2.35;;;17.30;99.90;;;;;;5002172;28;20181;-91
2021/01/22 11:13:19;;;;;;;2.88;1.90;;;17.70;99.90;;;;;;5003086;28;20204;-90
2021/01/22 11:15:44;;;;;;;5.65;2.30;;;17.70;99.90;;;;;;4981041;28;20204;-91
2021/01/22 11:18:11;;;;;;;5.80;2.45;;;17.20;99.90;;;;;;5001061;28;20247;-90
2021/01/22 11:20:37;;;;;;;6.85;2.45;;;17.00;99.90;;;;;;4968403;28;20550;-91
2021/01/22 11:23:03;;;;;;;9.20;1.92;;;16.80;99.90;;;;;;4980647;28;20182;-90
2021/01/22 11:25:29;;;;;;;3.78;1.77;;;16.40;99.90;;;;;;4991729;28;20189;-90
2021/01/22 11:27:55;;;;;;;5.80;2.42;;;16.60;99.90;;;;;;4985454;28;20556;-88
2021/01/22 11:30:21;;;;;;;11.15;3.83;;;16.60;99.90;;;;;;5000161;28;20192;-90
2021/01/22 11:32:48;;;;;;;5.88;2.47;;;16.70;99.90;;;;;;5005569;28;20209;-90
2021/01/22 11:35:13;;;;;;;6.00;2.55;;;16.20;99.90;;;;;;5002512;28;20197;-89
2021/01/22 11:37:42;;;;;;;6.70;3.13;;;16.60;99.90;;;;;;4995948;28;20253;-90
2021/01/22 11:40:09;;;;;;;5.75;2.28;;;17.20;99.90;;;;;;5008045;28;20193;-90
2021/01/22 11:42:35;;;;;;;7.50;2.90;;;17.30;99.90;;;;;;4996980;28;20190;-89
2021/01/22 11:45:01;;;;;;;4.82;2.03;;;17.20;99.90;;;;;;4989078;28;20269;-90
2021/01/22 11:47:27;;;;;;;6.75;2.80;;;17.00;99.90;;;;;;4982523;28;20205;-90
2021/01/22 11:49:53;;;;;;;9.35;2.63;;;16.70;99.90;;;;;;4982700;28;20201;-90
2021/01/22 11:52:18;;;;;;;5.82;2.70;;;17.00;99.90;;;;;;5012958;28;20333;-83
2021/01/22 11:54:44;;;;;;;7.22;2.10;;;16.90;99.90;;;;;;4995841;28;20196;-84
2021/01/22 11:57:10;;;;;;;7.45;2.30;;;16.90;99.90;;;;;;4997394;28;20644;-84
2021/01/22 11:59:35;;;;;;;5.10;2.40;;;17.30;99.90;;;;;;4980521;28;20200;-81
2021/01/22 12:02:01;;;;;;;5.50;2.40;;;17.90;99.90;;;;;;4987462;28;20186;-84
2021/01/22 12:04:27;;;;;;;5.07;2.05;;;18.20;99.90;;;;;;4992309;28;20229;-83
2021/01/22 12:06:53;;;;;;;5.18;2.00;;;18.20;99.90;;;;;;4994040;28;20183;-85
2021/01/22 12:09:19;;;;;;;6.75;2.40;;;18.20;99.90;;;;;;5004298;28;20196;-83
2021/01/22 12:11:45;;;;;;;6.90;2.33;;;18.00;99.90;;;;;;5009716;28;20194;-82
2021/01/22 12:14:11;;;;;;;9.40;2.17;;;18.20;99.90;;;;;;5029943;28;20700;-80
2021/01/22 12:16:36;;;;;;;8.45;2.50;;;18.40;99.90;;;;;;5007888;28;20689;-85
2021/01/22 12:19:03;;;;;;;8.35;2.65;;;18.10;99.90;;;;;;5003128;28;20189;-84
2021/01/22 12:21:28;;;;;;;8.63;3.03;;;17.60;99.90;;;;;;5013209;28;20248;-84
2021/01/22 12:23:54;;;;;;;12.77;2.67;;;17.60;99.90;;;;;;5008354;28;20193;-85
2021/01/22 12:26:20;;;;;;;6.75;2.50;;;17.60;99.90;;;;;;4994563;28;20642;-84
2021/01/22 12:28:47;;;;;;;7.05;2.60;;;17.60;99.90;;;;;;4999081;28;20190;-85
2021/01/22 12:31:12;;;;;;;12.52;2.60;;;17.80;99.90;;;;;;4995086;28;20209;-86
2021/01/22 12:33:38;;;;;;;8.05;2.28;;;17.50;99.90;;;;;;4984158;28;20244;-87
2021/01/22 12:36:05;;;;;;;13.40;2.50;;;17.30;99.90;;;;;;5015820;28;20194;-86
2021/01/22 12:38:30;;;;;;;5.85;1.83;;;17.40;99.90;;;;;;4999467;28;20178;-84
2021/01/22 12:40:56;;;;;;;8.65;2.28;;;17.40;99.90;;;;;;4996536;28;20642;-86
2021/01/22 12:43:22;;;;;;;6.05;2.28;;;17.60;99.90;;;;;;4995757;28;20272;-85
2021/01/22 12:45:48;;;;;;;9.00;2.20;;;18.10;99.90;;;;;;5011311;28;20189;-85
2021/01/22 12:48:14;;;;;;;6.47;2.15;;;18.00;99.90;;;;;;4985674;28;20220;-86
2021/01/22 12:50:41;;;;;;;3.92;1.88;;;17.10;99.90;;;;;;4995180;28;20199;-86
2021/01/22 12:53:06;;;;;;;6.88;2.53;;;17.00;99.90;;;;;;4977875;28;20221;-86
2021/01/22 12:55:32;;;;;;;6.03;2.30;;;16.40;99.90;;;;;;4984181;28;20194;-86
2021/01/22 12:57:58;;;;;;;10.00;3.00;;;16.10;99.90;;;;;;4992554;28;20627;-85